createdAt,value
2023-03-20T00:01:57.860Z,101852.50
2023-03-20T00:06:59.438Z,101861.28
2023-03-20T00:12:01.417Z,101846.22
2023-03-20T00:17:10.897Z,101834.47
2023-03-20T00:22:12.593Z,101830.03
2023-03-20T00:27:16.120Z,101858.06
2023-03-20T00:32:18.215Z,101854.72
2023-03-20T00:37:19.700Z,101877.31
2023-03-20T00:42:22.359Z,101879.56
2023-03-20T00:47:25.100Z,101895.00
2023-03-20T00:52:26.635Z,101903.25
2023-03-20T00:57:39.955Z,101880.91
2023-03-20T01:02:41.546Z,101875.19
2023-03-20T01:07:43.221Z,101878.66
2023-03-20T01:12:46.565Z,101893.00
2023-03-20T01:17:48.899Z,101891.41
2023-03-20T01:22:50.826Z,101893.72
2023-03-20T01:27:54.356Z,101891.91
2023-03-20T01:32:56.876Z,101889.91
2023-03-20T01:37:58.472Z,101884.63
2023-03-20T01:43:02.994Z,101875.09
2023-03-20T01:48:27.267Z,101872.38
2023-03-20T01:53:29.987Z,101853.34
2023-03-20T01:58:38.985Z,101862.63
2023-03-20T02:03:43.687Z,101870.03
2023-03-20T02:08:51.009Z,101858.94
2023-03-20T02:13:56.945Z,101841.00
2023-03-20T02:18:59.094Z,101840.78
2023-03-20T02:24:29.241Z,101840.63
2023-03-20T02:29:56.938Z,101828.91
2023-03-20T02:35:35.996Z,101825.09
2023-03-20T02:40:59.041Z,101831.75
2023-03-20T02:46:25.511Z,101811.03
2023-03-20T02:51:56.442Z,101800.41
2023-03-20T02:57:05.890Z,101788.69
2023-03-20T03:02:12.491Z,101777.06
2023-03-20T03:07:15.965Z,101766.34
2023-03-20T03:12:21.733Z,101769.56
2023-03-20T03:17:27.754Z,101786.22
2023-03-20T03:22:29.317Z,101780.53
2023-03-20T03:28:02.871Z,101779.69
2023-03-20T03:33:23.151Z,101782.25
2023-03-20T03:38:49.352Z,101773.75
2023-03-20T03:43:56.995Z,101746.59
2023-03-20T03:48:59.145Z,101751.28
2023-03-20T03:54:15.449Z,101753.28
2023-03-20T03:59:26.367Z,101733.66
2023-03-20T04:04:30.297Z,101751.66
2023-03-20T04:09:32.268Z,101741.91
2023-03-20T04:14:33.816Z,101748.69
2023-03-20T04:19:35.291Z,101742.19
2023-03-20T04:24:36.755Z,101755.88
2023-03-20T04:29:39.359Z,101747.13
2023-03-20T04:34:40.880Z,101739.09
2023-03-20T04:39:42.980Z,101734.16
2023-03-20T04:44:44.455Z,101720.56
2023-03-20T04:49:45.938Z,101725.63
2023-03-20T04:54:47.439Z,101729.47
2023-03-20T04:59:48.984Z,101727.34
2023-03-20T05:04:51.028Z,101716.78
2023-03-20T05:09:52.563Z,101717.88
2023-03-20T05:14:56.889Z,101720.72
2023-03-20T05:19:58.367Z,101718.72
2023-03-20T05:25:01.332Z,101716.00
2023-03-20T05:30:03.011Z,101714.06
2023-03-20T05:35:05.299Z,101720.72
2023-03-20T05:40:11.201Z,101725.41
2023-03-20T05:45:12.751Z,101721.56
2023-03-20T05:50:14.287Z,101720.84
2023-03-20T05:55:16.096Z,101725.41
2023-03-20T06:00:17.952Z,101730.09
2023-03-20T06:05:19.428Z,101718.13
2023-03-20T06:10:21.115Z,101725.16
2023-03-20T06:15:23.038Z,101716.78
2023-03-20T06:20:24.847Z,101719.84
2023-03-20T06:25:26.386Z,101734.63
2023-03-20T06:30:27.971Z,101730.34
2023-03-20T06:35:31.296Z,101731.19
2023-03-20T06:40:32.909Z,101731.56
2023-03-20T06:45:34.601Z,101732.91
2023-03-20T06:50:36.589Z,101747.09
2023-03-20T06:55:38.466Z,101740.81
2023-03-20T07:00:40.191Z,101745.25
2023-03-20T07:05:42.035Z,101749.81
2023-03-20T07:10:43.587Z,101744.00
2023-03-20T07:16:01.210Z,101748.59
2023-03-20T07:21:06.579Z,101760.53
2023-03-20T07:26:08.100Z,101745.63
2023-03-20T07:31:22.070Z,101744.88
2023-03-20T07:36:23.721Z,101740.78
2023-03-20T07:41:26.583Z,101740.31
2023-03-20T07:46:28.195Z,101752.38
2023-03-20T07:51:30.223Z,101758.44
2023-03-20T07:56:32.453Z,101768.78
2023-03-20T08:01:33.994Z,101769.53
2023-03-20T08:06:35.862Z,101770.00
2023-03-20T08:11:37.945Z,101770.78
2023-03-20T08:16:39.491Z,101767.88
2023-03-20T08:21:41.049Z,101769.38
2023-03-20T08:26:43.990Z,101773.41
2023-03-20T08:31:45.860Z,101773.41
2023-03-20T08:36:47.538Z,101774.03
2023-03-20T08:41:49.694Z,101765.59
2023-03-20T08:46:51.209Z,101757.66
2023-03-20T08:51:52.757Z,101776.03
2023-03-20T08:56:54.320Z,101764.56
2023-03-20T09:01:55.889Z,101763.59
2023-03-20T09:06:57.536Z,101756.81
2023-03-20T09:12:00.482Z,101767.25
2023-03-20T09:17:02.040Z,101756.03
2023-03-20T09:22:03.660Z,101750.06
2023-03-20T09:27:05.646Z,101762.41
2023-03-20T09:32:07.981Z,101753.22
2023-03-20T09:37:09.465Z,101751.50
2023-03-20T09:42:32.809Z,101754.44
2023-03-20T09:48:02.839Z,101743.28
2023-03-20T09:53:13.077Z,101749.72
2023-03-20T09:58:46.985Z,101757.91
2023-03-20T10:03:55.720Z,101756.75
2023-03-20T10:09:00.141Z,101755.34
2023-03-20T10:14:22.465Z,101754.03
2023-03-20T10:19:32.472Z,101757.44
2023-03-20T10:24:53.067Z,101745.63
2023-03-20T10:30:03.042Z,101746.22
2023-03-20T10:35:49.905Z,101749.75
2023-03-20T10:40:52.891Z,101742.97
2023-03-20T10:46:05.261Z,101734.34
2023-03-20T10:51:14.634Z,101747.88
2023-03-20T10:56:30.917Z,101737.53
2023-03-20T11:01:35.071Z,101741.38
2023-03-20T11:06:47.251Z,101734.31
2023-03-20T11:11:52.034Z,101727.78
2023-03-20T11:16:56.926Z,101725.44
2023-03-20T11:22:02.164Z,101735.47
2023-03-20T11:27:10.731Z,101741.97
2023-03-20T11:32:32.678Z,101729.84
2023-03-20T11:37:35.392Z,101735.00
2023-03-20T11:42:37.269Z,101733.41
2023-03-20T11:47:39.906Z,101729.06
2023-03-20T11:52:45.177Z,101712.44
2023-03-20T11:57:47.654Z,101715.38
2023-03-20T12:02:49.563Z,101711.38
2023-03-20T12:07:53.010Z,101713.25
2023-03-20T12:13:12.928Z,101705.59
2023-03-20T12:18:35.989Z,101700.44
2023-03-20T12:23:58.867Z,101696.47
2023-03-20T12:29:22.119Z,101697.97
2023-03-20T12:34:42.458Z,101696.22
2023-03-20T12:39:55.470Z,101691.94
2023-03-20T12:45:09.260Z,101691.28
2023-03-20T12:50:28.850Z,101685.28
2023-03-20T12:55:48.657Z,101677.69
2023-03-20T13:00:50.105Z,101674.75
2023-03-20T13:06:03.071Z,101666.28
2023-03-20T13:11:25.920Z,101652.84
2023-03-20T13:16:45.584Z,101646.78
2023-03-20T13:22:01.748Z,101655.94
2023-03-20T13:27:46.378Z,101648.06
2023-03-20T13:33:25.948Z,101653.75
2023-03-20T13:38:33.959Z,101651.63
2023-03-20T13:43:35.665Z,101645.78
2023-03-20T13:48:42.748Z,101639.94
2023-03-20T13:54:29.928Z,101632.38
2023-03-20T13:59:43.549Z,101636.31
2023-03-20T14:04:47.583Z,101641.38
2023-03-20T14:09:54.086Z,101642.09
2023-03-20T14:14:57.639Z,101639.69
2023-03-20T14:20:20.364Z,101643.31
2023-03-20T14:25:23.737Z,101640.84
2023-03-20T14:30:31.411Z,101643.91
2023-03-20T14:35:46.352Z,101635.00
2023-03-20T14:40:57.791Z,101633.69
2023-03-20T14:46:21.086Z,101627.97
2023-03-20T14:51:44.698Z,101629.97
2023-03-20T14:56:46.789Z,101627.25
2023-03-20T15:02:01.986Z,101621.38
2023-03-20T15:07:36.607Z,101610.78
2023-03-20T15:12:38.695Z,101609.03
2023-03-20T15:17:48.947Z,101616.22
2023-03-20T15:22:53.875Z,101606.06
2023-03-20T15:27:56.268Z,101610.84
2023-03-20T15:32:58.914Z,101604.84
2023-03-20T15:38:08.288Z,101611.91
2023-03-20T15:43:24.964Z,101598.16
2023-03-20T15:48:26.553Z,101600.19
2023-03-20T15:53:37.626Z,101592.03
2023-03-20T15:58:41.154Z,101595.22
2023-03-20T16:03:42.958Z,101587.72
2023-03-20T16:08:46.784Z,101588.00
2023-03-20T16:13:49.759Z,101589.84
2023-03-20T16:18:51.754Z,101594.16
2023-03-20T16:23:56.389Z,101587.69
2023-03-20T16:29:04.478Z,101592.00
2023-03-20T16:34:08.728Z,101594.56
2023-03-20T16:39:15.919Z,101602.03
2023-03-20T16:44:20.790Z,101588.38
2023-03-20T16:49:44.911Z,101590.81
2023-03-20T16:54:46.540Z,101592.34
2023-03-20T16:59:48.857Z,101581.06
2023-03-20T17:04:56.246Z,101585.91
2023-03-20T17:10:01.114Z,101582.03
2023-03-20T17:15:02.655Z,101579.06
2023-03-20T17:20:04.362Z,101588.78
2023-03-20T17:25:06.644Z,101591.44
2023-03-20T17:30:17.567Z,101590.75
2023-03-20T17:35:19.430Z,101599.34
2023-03-20T17:40:23.034Z,101590.34
2023-03-20T17:45:24.817Z,101600.09
2023-03-20T17:50:27.424Z,101608.84
2023-03-20T17:55:29.008Z,101606.00
2023-03-20T18:00:30.989Z,101612.75
2023-03-20T18:05:34.174Z,101619.31
2023-03-20T18:10:37.638Z,101617.59
2023-03-20T18:15:40.389Z,101617.38
2023-03-20T18:20:43.032Z,101614.63
2023-03-20T18:25:44.658Z,101622.78
2023-03-20T18:30:46.875Z,101622.66
2023-03-20T18:35:48.504Z,101616.22
2023-03-20T18:40:50.055Z,101619.66
2023-03-20T18:45:51.648Z,101607.75
2023-03-20T18:50:54.022Z,101612.78
2023-03-20T18:55:56.103Z,101607.19
2023-03-20T19:00:59.638Z,101610.78
2023-03-20T19:06:01.176Z,101608.31
2023-03-20T19:11:02.871Z,101610.53
2023-03-20T19:16:06.034Z,101609.78
2023-03-20T19:21:10.245Z,101608.22
2023-03-20T19:26:18.426Z,101615.50
2023-03-20T19:31:21.385Z,101603.75
2023-03-20T19:36:31.582Z,101610.06
2023-03-20T19:41:33.176Z,101603.16
2023-03-20T19:46:42.455Z,101602.88
2023-03-20T19:51:44.890Z,101599.31
2023-03-20T19:56:46.430Z,101602.88
2023-03-20T20:01:48.057Z,101594.22
2023-03-20T20:06:49.694Z,101597.03
2023-03-20T20:11:51.337Z,101588.38
2023-03-20T20:16:53.749Z,101584.34
2023-03-20T20:22:20.260Z,101580.06
2023-03-20T20:27:19.031Z,101578.47
2023-03-20T20:32:23.465Z,101581.78
2023-03-20T20:42:49.236Z,101587.22
2023-03-20T20:47:51.069Z,101587.22
2023-03-20T20:52:53.706Z,101588.38
2023-03-20T20:57:55.878Z,101584.09
2023-03-20T21:02:57.557Z,101582.25
2023-03-20T21:07:59.140Z,101577.53
2023-03-20T21:13:00.986Z,101574.69
2023-03-20T21:18:02.593Z,101570.34
2023-03-20T21:23:04.201Z,101568.53
2023-03-20T21:28:06.540Z,101582.44
2023-03-20T21:33:08.172Z,101586.47
2023-03-20T21:43:31.508Z,101580.81
2023-03-20T21:59:50.960Z,101587.47
2023-03-20T22:10:46.031Z,101576.72
2023-03-20T22:16:03.295Z,101565.84
2023-03-20T22:21:29.543Z,101575.31
2023-03-20T22:27:07.258Z,101573.84
2023-03-20T22:42:47.884Z,101559.50
2023-03-20T22:47:34.872Z,101552.09
2023-03-20T22:52:48.489Z,101550.38
2023-03-20T22:58:05.935Z,101542.75
2023-03-20T23:08:33.501Z,101548.53
2023-03-20T23:13:35.581Z,101547.97
2023-03-20T23:18:37.712Z,101539.34
2023-03-20T23:23:39.276Z,101548.94
2023-03-20T23:28:42.189Z,101547.25
2023-03-20T23:33:55.552Z,101546.09
2023-03-20T23:38:57.067Z,101537.22
2023-03-20T23:43:58.546Z,101538.69
2023-03-20T23:49:00.184Z,101541.41
2023-03-20T23:54:01.667Z,101530.66
2023-03-20T23:59:15.010Z,101530.38
